createdAt,value
2022-09-23T00:00:10.885Z,21.23
2022-09-23T00:05:03.308Z,21.21
2022-09-23T00:09:55.832Z,21.21
2022-09-23T00:14:48.051Z,21.16
2022-09-23T00:19:40.385Z,21.16
2022-09-23T00:24:32.853Z,21.13
2022-09-23T00:29:25.435Z,21.15
2022-09-23T00:34:17.872Z,21.11
2022-09-23T00:39:10.547Z,21.17
2022-09-23T00:44:02.773Z,21.09
2022-09-23T00:48:55.092Z,21.08
2022-09-23T00:53:47.882Z,21.08
2022-09-23T00:58:42.129Z,21.1
2022-09-23T01:03:34.323Z,21.05
2022-09-23T01:08:26.919Z,21.05
2022-09-23T01:13:19.315Z,21.05
2022-09-23T01:18:11.653Z,21.04
2022-09-23T01:23:04.065Z,21.04
2022-09-23T01:27:56.672Z,21
2022-09-23T01:32:48.994Z,20.97
2022-09-23T01:37:41.400Z,20.97
2022-09-23T01:42:33.821Z,20.99
2022-09-23T01:47:26.131Z,20.97
2022-09-23T01:52:18.594Z,20.96
2022-09-23T01:57:10.642Z,20.95
2022-09-23T02:02:03.305Z,20.91
2022-09-23T02:06:55.869Z,20.91
2022-09-23T02:11:48.351Z,20.89
2022-09-23T02:16:40.878Z,20.88
2022-09-23T02:21:33.082Z,20.89
2022-09-23T02:26:25.460Z,20.86
2022-09-23T02:31:17.934Z,20.86
2022-09-23T02:36:10.667Z,20.83
2022-09-23T02:41:02.969Z,20.84
2022-09-23T02:45:55.420Z,20.84
2022-09-23T02:50:48.174Z,20.83
2022-09-23T02:55:40.780Z,20.8
2022-09-23T03:00:33.050Z,20.8
2022-09-23T03:05:25.550Z,20.76
2022-09-23T03:10:18.248Z,20.75
2022-09-23T03:15:10.831Z,20.74
2022-09-23T03:20:03.457Z,20.74
2022-09-23T03:24:55.965Z,20.76
2022-09-23T03:29:48.316Z,20.74
2022-09-23T03:34:40.638Z,20.69
2022-09-23T03:39:33.189Z,20.67
2022-09-23T03:44:25.744Z,20.67
2022-09-23T03:49:19.275Z,20.66
2022-09-23T03:54:10.788Z,20.63
2022-09-23T03:59:03.417Z,20.65
2022-09-23T04:03:55.748Z,20.61
2022-09-23T04:08:48.032Z,20.6
2022-09-23T04:13:40.529Z,20.6
2022-09-23T04:18:33.095Z,20.57
2022-09-23T04:23:25.457Z,20.57
2022-09-23T04:28:18.042Z,20.58
2022-09-23T04:33:10.385Z,20.56
2022-09-23T04:38:02.771Z,20.56
2022-09-23T04:42:55.141Z,20.55
2022-09-23T04:47:47.602Z,20.53
2022-09-23T04:52:39.989Z,20.52
2022-09-23T04:57:32.505Z,20.51
2022-09-23T05:02:24.982Z,20.49
2022-09-23T05:07:17.290Z,20.48
2022-09-23T05:12:09.802Z,20.55
2022-09-23T05:17:02.334Z,20.51
2022-09-23T05:21:54.807Z,20.48
2022-09-23T05:26:47.249Z,20.49
2022-09-23T05:31:39.936Z,20.55
2022-09-23T05:36:37.087Z,20.63
2022-09-23T05:41:25.335Z,20.75
2022-09-23T05:46:17.872Z,20.79
2022-09-23T05:51:10.033Z,20.72
2022-09-23T06:00:54.602Z,20.75
2022-09-23T06:05:47.702Z,20.92
2022-09-23T06:10:40.152Z,20.95
2022-09-23T06:15:32.730Z,21.07
2022-09-23T06:20:25.236Z,21.13
2022-09-23T06:25:17.546Z,21.24
2022-09-23T06:30:09.923Z,21.19
2022-09-23T06:35:02.690Z,20.97
2022-09-23T06:39:55.118Z,21.07
2022-09-23T06:44:47.888Z,21.11
2022-09-23T06:49:42.371Z,21.13
2022-09-23T06:54:34.447Z,21.12
2022-09-23T06:59:27.008Z,21.08
2022-09-23T07:04:19.154Z,21.16
2022-09-23T07:09:11.684Z,21.12
2022-09-23T07:14:04.263Z,21.1
2022-09-23T07:18:56.922Z,21.21
2022-09-23T07:23:49.459Z,21.2
2022-09-23T07:28:41.993Z,21.27
2022-09-23T07:33:34.739Z,21.43
2022-09-23T07:38:26.845Z,21.46
2022-09-23T07:43:19.274Z,21.47
2022-09-23T07:48:11.596Z,21.43
2022-09-23T07:53:04.029Z,21.47
2022-09-23T07:57:56.645Z,21.44
2022-09-23T08:07:36.548Z,21.45
2022-09-23T08:12:30.217Z,21.4
2022-09-23T08:17:22.760Z,21.43
2022-09-23T08:22:15.113Z,21.41
2022-09-23T08:27:07.783Z,21.34
2022-09-23T08:32:00.360Z,21.32
2022-09-23T08:36:52.658Z,21.27
2022-09-23T08:41:45.426Z,21.26
2022-09-23T08:46:38.015Z,21.26
2022-09-23T08:51:30.420Z,21.23
2022-09-23T08:56:22.884Z,21.24
2022-09-23T09:01:15.520Z,21.25
2022-09-23T09:06:07.912Z,21.23
2022-09-23T09:11:00.273Z,21.22
2022-09-23T09:15:55.056Z,21.2
2022-09-23T09:20:45.105Z,21.2
2022-09-23T09:25:37.692Z,21.2
2022-09-23T09:30:30.099Z,21.2
2022-09-23T09:35:22.825Z,21.17
2022-09-23T09:40:15.680Z,21.17
2022-09-23T09:45:08.249Z,21.17
2022-09-23T09:50:00.678Z,21.18
2022-09-23T09:54:53.140Z,21.15
2022-09-23T09:59:45.679Z,21.14
2022-09-23T10:04:38.329Z,21.13
2022-09-23T10:09:30.609Z,21.15
2022-09-23T10:14:23.074Z,21.17
2022-09-23T10:19:15.389Z,21.19
2022-09-23T10:24:07.922Z,21.22
2022-09-23T10:29:00.335Z,21.22
2022-09-23T10:33:52.935Z,21.21
2022-09-23T10:38:45.168Z,21.23
2022-09-23T10:43:37.710Z,21.24
2022-09-23T10:48:30.208Z,21.26
2022-09-23T10:53:22.543Z,21.26
2022-09-23T10:58:14.993Z,21.32
2022-09-23T11:03:07.479Z,21.29
2022-09-23T11:08:00.011Z,21.31
2022-09-23T11:12:52.459Z,21.34
2022-09-23T11:17:47.082Z,21.35
2022-09-23T11:22:39.386Z,21.36
2022-09-23T11:27:31.792Z,21.38
2022-09-23T11:32:24.428Z,21.46
2022-09-23T11:37:16.829Z,21.44
2022-09-23T11:42:09.273Z,21.47
2022-09-23T11:47:01.787Z,21.48
2022-09-23T11:51:54.088Z,21.48
2022-09-23T11:56:48.808Z,21.52
2022-09-23T12:01:42.036Z,21.54
2022-09-23T12:06:32.051Z,21.54
2022-09-23T12:11:24.442Z,21.56
2022-09-23T12:16:17.238Z,21.61
2022-09-23T12:21:18.265Z,21.61
2022-09-23T12:26:02.184Z,21.62
2022-09-23T12:30:54.737Z,21.63
2022-09-23T12:35:47.345Z,21.66
2022-09-23T12:40:39.819Z,21.69
2022-09-23T12:45:32.353Z,21.7
2022-09-23T12:50:24.819Z,21.77
2022-09-23T12:55:17.470Z,21.74
2022-09-23T13:00:10.266Z,21.78
2022-09-23T13:05:02.813Z,21.78
2022-09-23T13:09:55.043Z,21.87
2022-09-23T13:14:47.767Z,21.96
2022-09-23T13:19:40.328Z,21.97
2022-09-23T13:24:32.790Z,22.08
2022-09-23T13:29:25.442Z,22.13
2022-09-23T13:34:17.962Z,22.13
2022-09-23T13:39:10.288Z,22.14
2022-09-23T13:44:02.741Z,22.17
2022-09-23T13:48:55.384Z,22.13
2022-09-23T13:53:47.829Z,22.15
2022-09-23T13:58:40.231Z,22.18
2022-09-23T14:03:36.416Z,22.21
2022-09-23T14:08:25.281Z,22.23
2022-09-23T14:13:19.610Z,22.25
2022-09-23T14:18:10.296Z,22.25
2022-09-23T14:23:03.149Z,22.25
2022-09-23T14:27:59.830Z,22.25
2022-09-23T14:32:48.301Z,22.23
2022-09-23T14:37:40.674Z,22.18
2022-09-23T14:42:33.286Z,22.19
2022-09-23T14:47:25.786Z,22.17
2022-09-23T14:52:18.219Z,22.19
2022-09-23T14:57:10.831Z,22.18
2022-09-23T15:02:03.329Z,22.18
2022-09-23T15:06:55.836Z,22.19
2022-09-23T15:11:48.383Z,22.18
2022-09-23T15:16:41.111Z,22.14
2022-09-23T15:21:33.178Z,22.13
2022-09-23T15:26:25.634Z,22.12
2022-09-23T15:31:18.288Z,22.14
2022-09-23T15:36:10.793Z,22.12
2022-09-23T15:41:03.184Z,22.12
2022-09-23T15:45:55.933Z,22.12
2022-09-23T15:50:48.335Z,22.12
2022-09-23T15:55:41.036Z,22.1
2022-09-23T16:00:33.629Z,22.13
2022-09-23T16:05:26.211Z,22.13
2022-09-23T16:10:18.649Z,22.09
2022-09-23T16:15:11.273Z,22.08
2022-09-23T16:20:03.827Z,22.08
2022-09-23T16:24:56.222Z,22.09
2022-09-23T16:29:48.854Z,22.02
2022-09-23T16:34:41.436Z,22.03
2022-09-23T16:39:33.912Z,22
2022-09-23T16:44:26.287Z,21.98
2022-09-23T16:49:18.709Z,21.96
2022-09-23T16:54:11.294Z,21.94
2022-09-23T16:59:03.725Z,21.93
2022-09-23T17:03:55.931Z,21.91
2022-09-23T17:08:48.369Z,21.9
2022-09-23T17:13:41.056Z,21.9
2022-09-23T17:18:33.370Z,21.88
2022-09-23T17:23:25.744Z,21.85
2022-09-23T17:28:18.607Z,21.85
2022-09-23T17:33:11.204Z,21.83
2022-09-23T17:38:03.966Z,21.83
2022-09-23T17:42:56.671Z,21.79
2022-09-23T17:47:49.205Z,21.76
2022-09-23T17:52:41.712Z,21.73
2022-09-23T17:57:34.208Z,21.72
2022-09-23T18:02:26.957Z,21.69
2022-09-23T18:07:19.550Z,21.68
2022-09-23T18:12:11.955Z,21.63
2022-09-23T18:17:04.070Z,21.59
2022-09-23T18:21:56.703Z,21.68
2022-09-23T18:26:49.017Z,21.66
2022-09-23T18:31:41.309Z,21.63
2022-09-23T18:36:33.673Z,21.62
2022-09-23T18:41:26.270Z,21.6
2022-09-23T18:46:18.786Z,21.58
2022-09-23T18:51:11.485Z,21.56
2022-09-23T18:56:04.052Z,21.51
2022-09-23T19:00:56.677Z,21.49
2022-09-23T19:05:48.883Z,21.45
2022-09-23T19:10:38.849Z,21.46
2022-09-23T19:15:32.556Z,21.44
2022-09-23T19:20:25.247Z,21.45
2022-09-23T19:25:18.014Z,21.44
2022-09-23T19:30:11.800Z,21.43
2022-09-23T19:35:03.263Z,21.4
2022-09-23T19:39:55.977Z,21.43
2022-09-23T19:44:48.394Z,21.39
2022-09-23T19:49:40.834Z,21.41
2022-09-23T19:54:33.490Z,21.34
2022-09-23T19:59:26.234Z,21.31
2022-09-23T20:04:18.675Z,21.31
2022-09-23T20:09:11.574Z,21.34
2022-09-23T20:14:04.128Z,21.32
2022-09-23T20:18:56.984Z,21.29
2022-09-23T20:23:49.637Z,21.27
2022-09-23T20:28:42.276Z,21.27
2022-09-23T20:33:34.896Z,21.26
2022-09-23T20:38:27.694Z,21.3
2022-09-23T20:43:20.252Z,21.27
2022-09-23T20:48:12.886Z,21.29
2022-09-23T20:53:05.474Z,21.27
2022-09-23T20:57:57.973Z,21.28
2022-09-23T21:02:50.533Z,21.26
2022-09-23T21:07:43.475Z,21.25
2022-09-23T21:12:35.904Z,21.26
2022-09-23T21:17:28.718Z,21.26
2022-09-23T21:22:21.226Z,21.23
2022-09-23T21:27:13.770Z,21.21
2022-09-23T21:32:05.920Z,21.19
2022-09-23T21:36:58.762Z,21.19
2022-09-23T21:41:51.328Z,21.18
2022-09-23T21:46:44.071Z,21.17
2022-09-23T21:51:36.793Z,21.17
2022-09-23T21:56:29.549Z,21.15
2022-09-23T22:01:22.387Z,21.18
2022-09-23T22:06:14.959Z,21.17
2022-09-23T22:11:07.399Z,21.14
2022-09-23T22:16:00.241Z,21.09
2022-09-23T22:20:53.687Z,21.09
2022-09-23T22:25:45.319Z,21.09
2022-09-23T22:30:37.833Z,21.06
2022-09-23T22:35:30.240Z,21.05
2022-09-23T22:40:22.770Z,21.01
2022-09-23T22:45:15.440Z,21.01
2022-09-23T22:50:07.833Z,21.01
2022-09-23T22:55:00.285Z,21
2022-09-23T22:59:52.866Z,20.97
2022-09-23T23:04:45.444Z,20.96
2022-09-23T23:09:37.902Z,20.96
2022-09-23T23:14:30.651Z,20.94
2022-09-23T23:19:23.067Z,20.92
2022-09-23T23:24:15.713Z,20.92
2022-09-23T23:29:08.245Z,20.9
2022-09-23T23:34:00.981Z,20.88
2022-09-23T23:38:53.453Z,20.87
2022-09-23T23:43:46.084Z,20.88
2022-09-23T23:48:38.775Z,20.85
2022-09-23T23:53:31.512Z,20.85
2022-09-23T23:58:24.107Z,20.84
